createdAt,value
2022-12-20T00:00:26.619Z,38.25
2022-12-20T00:03:14.033Z,36.40
2022-12-20T00:06:02.944Z,33.35
2022-12-20T00:08:54.961Z,35.70
2022-12-20T00:11:42.632Z,35.40
2022-12-20T00:14:30.060Z,34.65
2022-12-20T00:17:17.581Z,33.53
2022-12-20T00:20:06.425Z,34.03
2022-12-20T00:22:55.433Z,36.05
2022-12-20T00:25:43.300Z,34.00
2022-12-20T00:28:30.769Z,28.60
2022-12-20T00:31:21.476Z,29.67
2022-12-20T00:34:08.904Z,27.67
2022-12-20T00:36:58.239Z,32.75
2022-12-20T00:39:47.068Z,30.85
2022-12-20T00:42:34.673Z,31.17
2022-12-20T00:45:22.036Z,30.20
2022-12-20T00:48:09.601Z,30.52
2022-12-20T00:51:00.697Z,34.35
2022-12-20T00:53:48.674Z,37.17
2022-12-20T00:56:37.592Z,27.90
2022-12-20T00:59:25.589Z,33.10
2022-12-20T01:02:13.201Z,31.20
2022-12-20T01:05:01.603Z,27.75
2022-12-20T01:07:48.891Z,34.83
2022-12-20T01:10:36.343Z,33.25
2022-12-20T01:13:25.023Z,35.90
2022-12-20T01:16:15.866Z,36.83
2022-12-20T01:19:04.204Z,34.95
2022-12-20T01:21:51.907Z,29.58
2022-12-20T01:24:39.639Z,30.60
2022-12-20T01:27:27.404Z,38.47
2022-12-20T01:30:17.195Z,28.33
2022-12-20T01:33:04.495Z,31.42
2022-12-20T01:35:57.623Z,32.22
2022-12-20T01:38:45.172Z,26.70
2022-12-20T01:41:34.449Z,32.65
2022-12-20T01:44:57.197Z,32.55
2022-12-20T01:47:46.318Z,30.40
2022-12-20T01:50:34.510Z,34.10
2022-12-20T01:53:24.543Z,34.33
2022-12-20T01:56:12.770Z,34.75
2022-12-20T01:59:02.033Z,29.60
2022-12-20T02:01:49.813Z,32.75
2022-12-20T02:04:38.994Z,32.55
2022-12-20T02:07:30.668Z,32.20
2022-12-20T02:10:20.109Z,26.48
2022-12-20T02:13:15.506Z,33.33
2022-12-20T02:16:05.284Z,32.40
2022-12-20T02:19:01.462Z,30.58
2022-12-20T02:22:01.305Z,28.13
2022-12-20T02:25:14.564Z,28.92
2022-12-20T02:28:09.316Z,28.25
2022-12-20T02:31:01.792Z,28.33
2022-12-20T02:33:51.630Z,34.40
2022-12-20T02:36:40.813Z,28.80
2022-12-20T02:39:31.150Z,27.45
2022-12-20T02:42:23.579Z,31.25
2022-12-20T02:45:17.685Z,31.40
2022-12-20T02:48:12.104Z,24.92
2022-12-20T02:51:01.603Z,29.55
2022-12-20T02:53:49.243Z,28.92
2022-12-20T02:56:40.559Z,28.13
2022-12-20T02:59:35.281Z,26.60
2022-12-20T03:02:25.338Z,32.35
2022-12-20T03:05:14.705Z,29.25
2022-12-20T03:08:03.574Z,30.52
2022-12-20T03:10:52.110Z,24.52
2022-12-20T03:13:40.227Z,32.05
2022-12-20T03:16:29.738Z,28.65
2022-12-20T03:19:17.399Z,30.50
2022-12-20T03:22:06.617Z,30.77
2022-12-20T03:24:54.720Z,28.00
2022-12-20T03:27:42.790Z,27.92
2022-12-20T03:30:30.451Z,28.08
2022-12-20T03:33:18.860Z,29.35
2022-12-20T03:36:08.776Z,23.73
2022-12-20T03:38:59.201Z,28.63
2022-12-20T03:41:48.642Z,28.00
2022-12-20T03:44:38.887Z,29.90
2022-12-20T03:47:26.580Z,25.50
2022-12-20T03:50:14.487Z,30.88
2022-12-20T03:53:05.640Z,29.10
2022-12-20T03:55:55.427Z,27.33
2022-12-20T03:58:44.263Z,26.58
2022-12-20T04:01:36.731Z,25.80
2022-12-20T04:04:25.274Z,30.08
2022-12-20T04:07:12.765Z,26.42
2022-12-20T04:10:08.108Z,27.98
2022-12-20T04:12:57.280Z,26.02
2022-12-20T04:15:45.803Z,28.55
2022-12-20T04:18:35.134Z,24.08
2022-12-20T04:21:24.803Z,28.27
2022-12-20T04:24:14.201Z,29.75
2022-12-20T04:27:06.873Z,30.17
2022-12-20T04:29:56.103Z,31.48
2022-12-20T04:32:44.327Z,25.80
2022-12-20T04:35:32.962Z,30.48
2022-12-20T04:38:21.803Z,26.70
2022-12-20T04:41:09.783Z,29.42
2022-12-20T04:44:06.885Z,31.88
2022-12-20T04:46:59.024Z,21.77
2022-12-20T04:49:48.823Z,34.65
2022-12-20T04:52:53.774Z,27.05
2022-12-20T04:55:41.951Z,28.40
2022-12-20T04:58:29.801Z,29.58
2022-12-20T05:01:20.910Z,28.48
2022-12-20T05:04:13.030Z,27.98
2022-12-20T05:07:00.957Z,27.90
2022-12-20T05:09:49.206Z,31.13
2022-12-20T05:12:36.669Z,29.73
2022-12-20T05:15:25.142Z,29.88
2022-12-20T05:18:13.039Z,27.98
2022-12-20T05:21:26.887Z,34.55
2022-12-20T05:24:33.160Z,36.55
2022-12-20T05:27:31.850Z,30.13
2022-12-20T05:30:20.224Z,31.65
2022-12-20T05:33:07.999Z,35.28
2022-12-20T05:35:56.164Z,32.05
2022-12-20T05:38:45.455Z,33.78
2022-12-20T05:41:36.845Z,31.10
2022-12-20T05:44:24.583Z,31.27
2022-12-20T05:47:16.226Z,33.10
2022-12-20T05:50:05.146Z,34.15
2022-12-20T05:52:59.174Z,31.48
2022-12-20T05:55:50.428Z,32.38
2022-12-20T05:58:38.453Z,36.83
2022-12-20T06:01:26.920Z,33.80
2022-12-20T06:04:18.767Z,35.85
2022-12-20T06:07:08.164Z,41.38
2022-12-20T06:09:56.927Z,38.97
2022-12-20T06:12:50.142Z,36.90
2022-12-20T06:15:39.613Z,38.50
2022-12-20T06:18:27.301Z,40.30
2022-12-20T06:21:19.047Z,35.67
2022-12-20T06:24:08.041Z,36.70
2022-12-20T06:26:58.462Z,35.80
2022-12-20T06:29:52.120Z,39.88
2022-12-20T06:32:42.662Z,39.95
2022-12-20T06:35:31.517Z,45.22
2022-12-20T06:38:20.482Z,45.10
2022-12-20T06:41:07.915Z,43.88
2022-12-20T06:43:55.275Z,46.08
2022-12-20T06:46:44.971Z,36.53
2022-12-20T06:49:32.824Z,39.22
2022-12-20T06:52:20.844Z,43.60
2022-12-20T06:55:14.261Z,40.03
2022-12-20T06:58:02.186Z,37.17
2022-12-20T07:00:50.420Z,35.03
2022-12-20T07:03:39.544Z,44.05
2022-12-20T07:06:29.406Z,33.95
2022-12-20T07:09:17.967Z,43.10
2022-12-20T07:12:05.843Z,37.25
2022-12-20T07:14:53.181Z,39.00
2022-12-20T07:17:40.469Z,39.83
2022-12-20T07:20:29.411Z,36.25
2022-12-20T07:23:17.385Z,36.20
2022-12-20T07:26:05.108Z,36.92
2022-12-20T07:28:52.771Z,39.28
2022-12-20T07:31:40.338Z,39.50
2022-12-20T07:34:28.046Z,37.28
2022-12-20T07:37:16.912Z,35.80
2022-12-20T07:40:04.422Z,40.60
2022-12-20T07:42:52.257Z,53.95
2022-12-20T07:45:40.044Z,53.45
2022-12-20T07:48:27.557Z,42.55
2022-12-20T07:51:19.603Z,38.15
2022-12-20T07:54:13.257Z,42.72
2022-12-20T07:57:05.007Z,41.25
2022-12-20T07:59:55.958Z,42.90
2022-12-20T08:02:48.554Z,41.33
2022-12-20T08:05:38.747Z,33.33
2022-12-20T08:08:27.439Z,34.55
2022-12-20T08:11:17.278Z,37.67
2022-12-20T08:14:08.379Z,35.67
2022-12-20T08:16:56.005Z,30.23
2022-12-20T08:19:43.486Z,32.70
2022-12-20T08:22:31.351Z,34.55
2022-12-20T08:25:18.908Z,36.50
2022-12-20T08:28:07.831Z,36.30
2022-12-20T08:31:01.144Z,40.67
2022-12-20T08:33:49.038Z,38.20
2022-12-20T08:36:36.647Z,36.97
2022-12-20T08:39:24.013Z,36.10
2022-12-20T08:42:11.657Z,32.63
2022-12-20T08:45:00.465Z,38.30
2022-12-20T08:47:48.277Z,38.28
2022-12-20T08:50:36.350Z,36.88
2022-12-20T08:53:23.707Z,37.38
2022-12-20T08:56:12.954Z,35.97
2022-12-20T08:59:00.507Z,38.83
2022-12-20T09:01:50.703Z,35.95
2022-12-20T09:04:40.399Z,37.97
2022-12-20T09:07:28.103Z,39.75
2022-12-20T09:10:16.792Z,40.75
2022-12-20T09:13:04.160Z,34.70
2022-12-20T09:15:51.692Z,38.25
2022-12-20T09:18:40.679Z,41.22
2022-12-20T09:21:28.867Z,38.58
2022-12-20T09:24:17.281Z,43.40
2022-12-20T09:27:05.288Z,38.83
2022-12-20T09:29:52.719Z,41.17
2022-12-20T09:32:40.047Z,43.92
2022-12-20T09:35:28.905Z,37.78
2022-12-20T09:38:16.374Z,35.63
2022-12-20T09:41:08.014Z,40.50
2022-12-20T09:43:56.143Z,41.33
2022-12-20T09:46:45.479Z,46.08
2022-12-20T09:49:36.314Z,42.38
2022-12-20T09:52:46.004Z,39.42
2022-12-20T09:55:40.464Z,39.97
2022-12-20T09:58:58.440Z,40.95
2022-12-20T10:01:47.977Z,35.35
2022-12-20T10:04:37.084Z,40.75
2022-12-20T10:07:36.783Z,45.38
2022-12-20T10:10:54.469Z,33.00
2022-12-20T10:16:47.786Z,35.90
2022-12-20T10:19:53.666Z,40.53
2022-12-20T10:22:51.525Z,33.45
2022-12-20T10:25:39.520Z,35.00
2022-12-20T10:28:30.130Z,34.20
2022-12-20T10:31:19.532Z,32.28
2022-12-20T10:34:07.580Z,30.52
2022-12-20T10:37:12.187Z,38.45
2022-12-20T10:40:07.345Z,34.38
2022-12-20T10:42:55.229Z,34.97
2022-12-20T10:45:44.677Z,33.67
2022-12-20T10:48:34.102Z,33.97
2022-12-20T10:51:23.421Z,36.67
2022-12-20T10:54:24.878Z,34.40
2022-12-20T10:57:21.204Z,41.20
2022-12-20T11:00:28.104Z,41.55
2022-12-20T11:03:18.931Z,38.88
2022-12-20T11:06:18.045Z,37.58
2022-12-20T11:09:25.708Z,40.22
2022-12-20T11:12:15.521Z,39.40
2022-12-20T11:15:12.537Z,39.40
2022-12-20T11:18:06.355Z,43.20
2022-12-20T11:20:59.179Z,41.35
2022-12-20T11:23:55.180Z,36.25
2022-12-20T11:26:59.518Z,43.50
2022-12-20T11:30:06.868Z,39.67
2022-12-20T11:36:14.845Z,38.20
2022-12-20T11:39:12.061Z,37.33
2022-12-20T11:42:06.722Z,40.50
2022-12-20T11:45:09.274Z,40.38
2022-12-20T11:48:25.047Z,41.63
2022-12-20T11:51:26.070Z,40.15
2022-12-20T11:54:21.086Z,39.80
2022-12-20T11:57:17.565Z,42.50
2022-12-20T12:00:06.611Z,46.28
2022-12-20T12:03:06.552Z,35.88
2022-12-20T12:05:57.091Z,42.10
2022-12-20T12:08:51.275Z,41.00
2022-12-20T12:14:57.429Z,41.25
2022-12-20T12:17:49.784Z,39.78
2022-12-20T12:20:46.562Z,35.33
2022-12-20T12:26:28.045Z,44.03
2022-12-20T12:29:19.447Z,51.50
2022-12-20T12:32:15.877Z,42.22
2022-12-20T12:38:18.590Z,36.63
2022-12-20T12:41:35.681Z,38.10
2022-12-20T12:44:38.139Z,41.42
2022-12-20T12:47:36.331Z,47.00
2022-12-20T12:50:27.664Z,44.88
2022-12-20T12:53:18.571Z,40.13
2022-12-20T12:56:46.920Z,40.75
2022-12-20T12:59:48.305Z,43.25
2022-12-20T13:02:49.973Z,46.30
2022-12-20T13:05:38.076Z,41.88
2022-12-20T13:08:50.972Z,44.65
2022-12-20T13:11:46.239Z,43.30
2022-12-20T13:14:55.680Z,48.13
2022-12-20T13:17:50.777Z,50.30
2022-12-20T13:20:38.610Z,39.35
2022-12-20T13:23:26.071Z,52.05
2022-12-20T13:26:51.102Z,48.38
2022-12-20T13:29:52.422Z,48.40
2022-12-20T13:32:59.801Z,54.22
2022-12-20T13:42:07.474Z,42.20
2022-12-20T13:44:56.567Z,39.85
2022-12-20T13:47:50.818Z,41.38
2022-12-20T13:50:41.973Z,44.88
2022-12-20T13:53:29.898Z,40.72
2022-12-20T13:56:37.350Z,43.38
2022-12-20T13:59:29.749Z,45.08
2022-12-20T14:02:22.766Z,38.10
2022-12-20T14:05:18.937Z,40.33
2022-12-20T14:08:09.787Z,42.20
2022-12-20T14:11:07.840Z,43.70
2022-12-20T14:13:57.564Z,47.65
2022-12-20T14:16:46.352Z,42.30
2022-12-20T14:19:34.070Z,48.28
2022-12-20T14:22:21.578Z,43.25
2022-12-20T14:25:16.870Z,42.47
2022-12-20T14:28:04.820Z,46.55
2022-12-20T14:30:52.946Z,45.47
2022-12-20T14:33:43.304Z,50.30
2022-12-20T14:36:31.815Z,45.00
2022-12-20T14:39:28.444Z,38.10
2022-12-20T14:45:18.440Z,53.35
2022-12-20T14:48:09.447Z,46.50
2022-12-20T14:50:58.199Z,51.63
2022-12-20T14:53:47.577Z,55.97
2022-12-20T14:56:34.898Z,49.70
2022-12-20T14:59:27.726Z,55.22
2022-12-20T15:02:36.427Z,58.88
2022-12-20T15:05:50.373Z,51.63
2022-12-20T15:08:40.528Z,47.42
2022-12-20T15:11:28.300Z,45.80
2022-12-20T15:14:28.679Z,48.13
2022-12-20T15:17:16.521Z,43.45
2022-12-20T15:20:04.387Z,45.60
2022-12-20T15:22:52.184Z,47.78
2022-12-20T15:25:43.477Z,49.88
2022-12-20T15:28:33.114Z,48.53
2022-12-20T15:31:30.690Z,46.92
2022-12-20T15:34:25.479Z,55.13
2022-12-20T15:37:18.677Z,46.60
2022-12-20T15:40:07.596Z,42.80
2022-12-20T15:42:56.328Z,46.30
2022-12-20T15:45:45.664Z,44.72
2022-12-20T15:48:33.423Z,43.95
2022-12-20T15:51:27.881Z,48.75
2022-12-20T15:54:24.171Z,49.05
2022-12-20T15:57:14.876Z,46.55
2022-12-20T16:00:06.846Z,53.28
2022-12-20T16:03:01.896Z,52.05
2022-12-20T16:05:51.295Z,47.97
2022-12-20T16:08:39.401Z,44.97
2022-12-20T16:11:29.293Z,42.95
2022-12-20T16:14:19.272Z,45.42
2022-12-20T16:17:08.253Z,52.53
2022-12-20T16:19:55.671Z,63.20
2022-12-20T16:22:43.394Z,63.33
2022-12-20T16:25:33.449Z,58.08
2022-12-20T16:28:20.871Z,57.13
2022-12-20T16:31:13.648Z,49.97
2022-12-20T16:34:04.476Z,48.80
2022-12-20T16:36:52.325Z,46.92
2022-12-20T16:39:40.514Z,48.25
2022-12-20T16:42:28.129Z,36.97
2022-12-20T16:45:19.591Z,37.33
2022-12-20T16:48:08.127Z,40.03
2022-12-20T16:50:57.955Z,45.60
2022-12-20T16:54:17.410Z,48.80
2022-12-20T16:56:56.100Z,42.30
2022-12-20T16:59:43.672Z,40.60
2022-12-20T17:02:34.713Z,46.75
2022-12-20T17:05:29.461Z,42.95
2022-12-20T17:11:26.084Z,41.67
2022-12-20T17:14:14.625Z,45.72
2022-12-20T17:17:02.438Z,43.80
2022-12-20T17:19:49.825Z,43.35
2022-12-20T17:22:37.181Z,43.42
2022-12-20T17:25:29.039Z,43.17
2022-12-20T17:28:16.628Z,43.90
2022-12-20T17:31:08.011Z,42.90
2022-12-20T17:33:56.501Z,43.38
2022-12-20T17:36:43.851Z,44.38
2022-12-20T17:39:31.233Z,41.28
2022-12-20T17:42:22.160Z,42.35
2022-12-20T17:45:26.899Z,41.83
2022-12-20T17:48:14.307Z,41.35
2022-12-20T17:51:02.848Z,37.05
2022-12-20T17:53:52.105Z,37.60
2022-12-20T17:56:39.539Z,38.05
2022-12-20T17:59:29.372Z,47.22
2022-12-20T18:02:22.966Z,42.10
2022-12-20T18:05:12.696Z,36.55
2022-12-20T18:08:00.053Z,41.63
2022-12-20T18:10:47.531Z,39.22
2022-12-20T18:13:35.453Z,45.78
2022-12-20T18:16:26.428Z,45.70
2022-12-20T18:19:17.687Z,42.90
2022-12-20T18:22:05.286Z,44.65
2022-12-20T18:24:52.940Z,41.40
2022-12-20T18:27:41.537Z,48.75
2022-12-20T18:30:30.269Z,48.33
2022-12-20T18:33:19.149Z,46.47
2022-12-20T18:36:09.122Z,44.03
2022-12-20T18:38:58.858Z,48.92
2022-12-20T18:41:47.673Z,47.15
2022-12-20T18:44:36.433Z,42.17
2022-12-20T18:47:24.173Z,36.85
2022-12-20T18:50:14.398Z,41.00
2022-12-20T18:53:01.972Z,39.15
2022-12-20T18:55:49.621Z,38.60
2022-12-20T18:58:38.512Z,34.67
2022-12-20T19:01:27.976Z,41.45
2022-12-20T19:04:20.756Z,45.30
2022-12-20T19:07:11.673Z,41.75
2022-12-20T19:09:59.074Z,38.90
2022-12-20T19:12:46.761Z,40.05
2022-12-20T19:15:34.298Z,47.33
2022-12-20T19:18:21.673Z,46.92
2022-12-20T19:21:11.098Z,43.60
2022-12-20T19:24:02.284Z,43.08
2022-12-20T19:26:49.806Z,46.92
2022-12-20T19:29:37.495Z,49.50
2022-12-20T19:32:25.165Z,42.38
2022-12-20T19:35:45.647Z,45.33
2022-12-20T19:38:20.941Z,48.08
2022-12-20T19:41:10.240Z,42.05
2022-12-20T19:43:58.526Z,39.78
2022-12-20T19:46:46.493Z,36.47
2022-12-20T19:49:35.518Z,50.13
2022-12-20T19:52:28.194Z,50.17
2022-12-20T19:55:16.240Z,48.75
2022-12-20T19:58:08.273Z,49.20
2022-12-20T20:00:55.839Z,45.60
2022-12-20T20:03:43.453Z,50.42
2022-12-20T20:06:30.841Z,50.08
2022-12-20T20:09:18.359Z,49.70
2022-12-20T20:12:06.489Z,45.45
2022-12-20T20:14:55.420Z,41.75
2022-12-20T20:17:43.103Z,43.45
2022-12-20T20:20:30.552Z,52.47
2022-12-20T20:23:18.191Z,45.70
2022-12-20T20:26:09.709Z,49.72
2022-12-20T20:28:57.104Z,44.33
2022-12-20T20:31:45.832Z,52.95
2022-12-20T20:34:33.527Z,54.65
2022-12-20T20:37:20.929Z,56.83
2022-12-20T20:40:09.514Z,56.83
2022-12-20T20:42:57.031Z,59.33
2022-12-20T20:45:44.755Z,61.13
2022-12-20T20:48:33.848Z,50.17
2022-12-20T20:51:21.149Z,57.55
2022-12-20T20:54:08.369Z,52.05
2022-12-20T20:56:55.851Z,51.95
2022-12-20T20:59:44.397Z,58.45
2022-12-20T21:02:32.170Z,59.90
2022-12-20T21:08:28.555Z,57.05
2022-12-20T21:11:16.173Z,62.92
2022-12-20T21:14:03.812Z,66.40
2022-12-20T21:16:51.214Z,61.47
2022-12-20T21:19:38.444Z,57.88
2022-12-20T21:22:27.225Z,55.70
2022-12-20T21:25:15.887Z,63.75
2022-12-20T21:28:03.436Z,64.60
2022-12-20T21:31:00.094Z,54.08
2022-12-20T21:33:47.806Z,59.40
2022-12-20T21:36:35.943Z,55.70
2022-12-20T21:39:24.649Z,44.50
2022-12-20T21:42:12.015Z,57.75
2022-12-20T21:44:59.464Z,45.58
2022-12-20T21:47:46.923Z,43.47
2022-12-20T21:50:36.485Z,46.15
2022-12-20T21:53:23.933Z,48.03
2022-12-20T21:56:12.820Z,47.22
2022-12-20T21:59:00.933Z,44.05
2022-12-20T22:01:48.455Z,43.15
2022-12-20T22:04:36.450Z,40.35
2022-12-20T22:07:23.774Z,43.60
2022-12-20T22:10:11.769Z,41.72
2022-12-20T22:13:00.573Z,43.00
2022-12-20T22:15:48.354Z,50.35
2022-12-20T22:18:36.223Z,44.85
2022-12-20T22:21:26.048Z,43.85
2022-12-20T22:24:13.484Z,42.88
2022-12-20T22:27:02.826Z,41.53
2022-12-20T22:29:55.138Z,45.15
2022-12-20T22:32:43.088Z,39.70
2022-12-20T22:35:30.640Z,46.90
2022-12-20T22:38:18.268Z,42.35
2022-12-20T22:41:10.433Z,38.97
2022-12-20T22:43:59.783Z,39.45
2022-12-20T22:49:53.693Z,45.97
2022-12-20T22:52:41.092Z,39.38
2022-12-20T22:55:28.360Z,40.85
2022-12-20T22:58:15.610Z,43.58
2022-12-20T23:01:06.883Z,42.13
2022-12-20T23:03:55.993Z,46.80
2022-12-20T23:06:43.650Z,46.25
2022-12-20T23:09:31.022Z,42.22
2022-12-20T23:12:35.900Z,44.13
2022-12-20T23:15:41.397Z,34.97
2022-12-20T23:18:28.832Z,40.13
2022-12-20T23:21:34.639Z,40.33
2022-12-20T23:24:22.511Z,41.08
2022-12-20T23:27:09.826Z,39.13
2022-12-20T23:29:57.273Z,41.70
2022-12-20T23:32:45.119Z,40.65
2022-12-20T23:35:32.807Z,43.17
2022-12-20T23:38:21.717Z,40.03
2022-12-20T23:41:10.007Z,38.88
2022-12-20T23:43:57.472Z,40.72
2022-12-20T23:46:44.774Z,43.65
2022-12-20T23:49:32.236Z,51.80
2022-12-20T23:52:19.552Z,51.60
2022-12-20T23:55:09.561Z,47.78
2022-12-20T23:57:57.139Z,50.60
